首页
METAR-TAF:

METAR-TAF

机场 :

Eau Claire, 威斯康辛州, 美国

纬度: 44-51-55N, 经度: 091-29-06W, 海拔: 277米

当前天气观测

该预报发布于36分钟前的23:56 UTC
风速15节,风向西,有时为22节阵风
温度 26°C
湿度 42%
气压 1008 hPa
能見度: 16.1公里
少量云层高于6500英尺

METAR: KEAU 252356Z 27015G22KT 10SM FEW065 26/12 A2977 RMK AO2 PK WND 28027/2321 SLP077 T02560117 10272 20250 53005

时间: 19:32 (00:32 UTC)

预报

该预报发布于1小时和12分钟前的23:20 UTC
预报有效从26日的 00点(UTC)到 26日的 24点(UTC)
风速11节,风向西,有时为17节阵风
能見度: 10公里
少量云层高于6000英尺
从 26日的 0200点(UTC)
风速5节,风向西转西南
能見度: 10公里
天空无云
从 26日的 1600点(UTC)
风速7节,风向西
能見度: 10公里
少量云层高于5000英尺
散云层高于15000英尺
从 26日的 2100点(UTC)
风速8节,风向西转西南
能見度: 10公里
少量云层高于5000英尺
多云层高于10000英尺

TAF: KEAU 252320Z 2600/2624 28011G17KT P6SM FEW060 FM260200 25005KT P6SM SKC FM261600 27007KT P6SM FEW050 SCT150 FM262100 24008KT P6SM FEW050 BKN100

超过4000个机场的气象观测和天气预报(METAR&TAF报告)。

可查询的气象台以黄色和红色小点在地图上表示。

将鼠标移到小点上方,可查看气象台名称。

然后点击查看天气观测和预报。

如需切换地图:点击带黑十字的绿色按钮放大地图;点击带横线的绿色按钮缩小地图;或者点击绿色箭头查看邻近地区的地图。


METAR-TAF: